createdAt,value
2022-09-04T00:00:53.881Z,16.10
2022-09-04T00:03:43.362Z,16.10
2022-09-04T00:06:21.926Z,16.00
2022-09-04T00:09:12.261Z,16.00
2022-09-04T00:11:54.418Z,16.00
2022-09-04T00:14:40.067Z,16.00
2022-09-04T00:17:19.275Z,16.00
2022-09-04T00:19:56.435Z,16.00
2022-09-04T00:22:37.102Z,16.00
2022-09-04T00:25:19.805Z,16.00
2022-09-04T00:27:55.586Z,15.90
2022-09-04T00:30:24.581Z,15.90
2022-09-04T00:33:04.671Z,15.90
2022-09-04T00:35:39.456Z,15.80
2022-09-04T00:38:14.735Z,15.80
2022-09-04T00:40:53.261Z,15.80
2022-09-04T00:44:08.907Z,15.80
2022-09-04T00:47:10.841Z,15.80
2022-09-04T00:50:37.733Z,15.80
2022-09-04T00:53:35.931Z,15.70
2022-09-04T00:56:32.007Z,15.70
2022-09-04T00:59:19.393Z,15.70
2022-09-04T01:05:45.638Z,15.70
2022-09-04T01:08:29.233Z,15.70
2022-09-04T01:11:14.420Z,15.60
2022-09-04T01:13:54.686Z,15.60
2022-09-04T01:16:32.491Z,15.60
2022-09-04T01:19:15.045Z,15.50
2022-09-04T01:22:14.159Z,15.50
2022-09-04T01:25:21.913Z,15.50
2022-09-04T01:28:03.612Z,15.50
2022-09-04T01:30:43.610Z,15.50
2022-09-04T01:33:24.709Z,15.50
2022-09-04T01:36:07.459Z,15.40
2022-09-04T01:38:48.673Z,15.40
2022-09-04T01:41:27.382Z,15.40
2022-09-04T01:43:57.621Z,15.40
2022-09-04T01:46:58.408Z,15.40
2022-09-04T01:49:38.968Z,15.40
2022-09-04T01:52:37.961Z,15.40
2022-09-04T01:55:21.046Z,15.30
2022-09-04T01:58:11.103Z,15.30
2022-09-04T02:00:57.774Z,15.30
2022-09-04T02:03:39.340Z,15.20
2022-09-04T02:06:22.286Z,15.10
2022-09-04T02:09:20.621Z,15.10
2022-09-04T02:12:00.897Z,15.10
2022-09-04T02:14:42.718Z,15.10
2022-09-04T02:17:18.787Z,15.00
2022-09-04T02:20:05.051Z,14.90
2022-09-04T02:22:50.138Z,14.90
2022-09-04T02:25:30.937Z,14.90
2022-09-04T02:28:22.641Z,14.90
2022-09-04T02:31:02.656Z,14.90
2022-09-04T02:33:43.155Z,14.90
2022-09-04T02:36:23.007Z,14.80
2022-09-04T02:39:04.654Z,14.80
2022-09-04T02:41:50.948Z,14.70
2022-09-04T02:44:42.421Z,14.70
2022-09-04T02:47:25.352Z,14.70
2022-09-04T02:50:08.821Z,14.70
2022-09-04T02:53:03.225Z,14.70
2022-09-04T02:55:54.281Z,14.70
2022-09-04T02:58:47.751Z,14.60
2022-09-04T03:01:27.308Z,14.60
2022-09-04T03:05:24.605Z,14.50
2022-09-04T03:08:06.350Z,14.50
2022-09-04T03:10:44.857Z,14.50
2022-09-04T03:13:26.765Z,14.50
2022-09-04T03:16:06.076Z,14.50
2022-09-04T03:19:01.182Z,14.50
2022-09-04T03:21:41.422Z,14.40
2022-09-04T03:24:18.906Z,14.40
2022-09-04T03:26:54.083Z,14.40
2022-09-04T03:29:33.601Z,14.30
2022-09-04T03:32:17.218Z,14.30
2022-09-04T03:34:56.979Z,14.30
2022-09-04T03:38:02.093Z,14.30
2022-09-04T03:40:41.824Z,14.30
2022-09-04T03:43:36.894Z,14.20
2022-09-04T03:46:24.804Z,14.20
2022-09-04T03:49:10.985Z,14.20
2022-09-04T03:52:00.009Z,14.20
2022-09-04T03:54:52.385Z,14.20
2022-09-04T03:57:45.058Z,14.20
2022-09-04T04:00:20.093Z,14.10
2022-09-04T04:03:23.510Z,14.10
2022-09-04T04:06:15.873Z,14.10
2022-09-04T04:09:41.599Z,14.10
2022-09-04T04:12:42.781Z,14.10
2022-09-04T04:15:38.763Z,14.00
2022-09-04T04:18:38.171Z,14.00
2022-09-04T04:21:21.078Z,14.00
2022-09-04T04:24:20.786Z,14.00
2022-09-04T04:27:14.792Z,14.00
2022-09-04T04:30:03.988Z,14.00
2022-09-04T04:33:09.029Z,14.00
2022-09-04T04:35:49.796Z,13.90
2022-09-04T04:38:40.606Z,13.90
2022-09-04T04:41:57.967Z,13.90
2022-09-04T04:45:15.415Z,13.90
2022-09-04T04:48:30.018Z,13.90
2022-09-04T04:51:20.929Z,13.90
2022-09-04T04:54:00.984Z,13.90
2022-09-04T04:56:46.346Z,13.90
2022-09-04T04:59:28.631Z,13.90
2022-09-04T05:05:46.590Z,13.90
2022-09-04T05:08:33.603Z,13.90
2022-09-04T05:11:12.261Z,13.90
2022-09-04T05:13:57.665Z,13.90
2022-09-04T05:16:43.577Z,13.90
2022-09-04T05:19:25.014Z,13.90
2022-09-04T05:22:11.661Z,13.90
2022-09-04T05:24:58.901Z,13.90
2022-09-04T05:27:49.711Z,14.00
2022-09-04T05:30:29.529Z,14.00
2022-09-04T05:33:09.721Z,14.10
2022-09-04T05:35:51.387Z,14.20
2022-09-04T05:38:32.152Z,14.20
2022-09-04T05:41:09.295Z,14.30
2022-09-04T05:44:16.510Z,14.40
2022-09-04T05:47:03.576Z,14.40
2022-09-04T05:49:58.503Z,14.40
2022-09-04T05:52:53.762Z,14.60
2022-09-04T05:56:27.543Z,14.70
2022-09-04T05:59:19.574Z,14.70
2022-09-04T06:02:23.234Z,14.50
2022-09-04T06:05:19.461Z,14.50
2022-09-04T06:08:02.102Z,14.40
2022-09-04T06:10:54.918Z,14.40
2022-09-04T06:13:55.052Z,14.40
2022-09-04T06:16:47.691Z,14.40
2022-09-04T06:19:42.724Z,14.30
2022-09-04T06:22:55.739Z,14.20
2022-09-04T06:26:06.683Z,14.20
2022-09-04T06:29:27.037Z,14.30
2022-09-04T06:32:49.248Z,14.40
2022-09-04T06:35:36.464Z,14.50
2022-09-04T06:38:30.550Z,14.60
2022-09-04T06:41:31.014Z,14.60
2022-09-04T06:44:14.445Z,14.70
2022-09-04T06:46:54.590Z,14.90
2022-09-04T06:49:42.695Z,14.90
2022-09-04T06:52:25.525Z,14.90
2022-09-04T06:55:10.022Z,14.90
2022-09-04T06:58:00.479Z,14.90
2022-09-04T07:00:44.647Z,14.90
2022-09-04T07:05:28.536Z,15.00
2022-09-04T07:08:13.193Z,15.00
2022-09-04T07:10:51.442Z,15.00
2022-09-04T07:14:17.620Z,15.20
2022-09-04T07:17:04.040Z,15.40
2022-09-04T07:20:14.828Z,15.90
2022-09-04T07:23:37.615Z,16.50
2022-09-04T07:26:22.021Z,16.60
2022-09-04T07:29:12.646Z,16.80
2022-09-04T07:31:49.972Z,16.90
2022-09-04T07:34:26.640Z,16.90
2022-09-04T07:37:04.677Z,17.00
2022-09-04T07:39:47.803Z,17.40
2022-09-04T07:42:28.191Z,17.80
2022-09-04T07:45:08.849Z,18.00
2022-09-04T07:47:44.584Z,18.30
2022-09-04T07:50:19.977Z,19.30
2022-09-04T07:53:11.294Z,19.70
2022-09-04T07:55:47.135Z,19.50
2022-09-04T07:59:07.879Z,19.60
2022-09-04T08:02:08.387Z,19.40
2022-09-04T08:05:18.199Z,19.90
2022-09-04T08:08:43.528Z,20.20
2022-09-04T08:12:00.958Z,20.50
2022-09-04T08:14:53.423Z,22.00
2022-09-04T08:18:03.879Z,22.40
2022-09-04T08:20:46.215Z,22.30
2022-09-04T08:23:58.457Z,23.20
2022-09-04T08:26:45.747Z,25.30
2022-09-04T08:29:33.551Z,26.50
2022-09-04T08:32:25.704Z,26.30
2022-09-04T08:35:26.538Z,25.50
2022-09-04T08:38:44.450Z,24.70
2022-09-04T08:42:05.080Z,24.30
2022-09-04T08:45:42.026Z,24.20
2022-09-04T08:49:11.721Z,23.90
2022-09-04T08:52:32.268Z,23.50
2022-09-04T08:55:46.121Z,22.80
2022-09-04T08:59:12.385Z,23.20
2022-09-04T09:06:13.046Z,22.80
2022-09-04T09:09:32.663Z,22.80
2022-09-04T09:12:58.063Z,22.60
2022-09-04T09:16:10.513Z,22.50
2022-09-04T09:18:52.490Z,22.70
2022-09-04T09:21:43.978Z,23.00
2022-09-04T09:25:03.520Z,23.10
2022-09-04T09:28:30.030Z,23.60
2022-09-04T09:31:51.657Z,24.50
2022-09-04T09:35:22.396Z,24.80
2022-09-04T09:38:36.301Z,25.60
2022-09-04T09:41:42.061Z,26.60
2022-09-04T09:45:06.391Z,27.70
2022-09-04T09:48:46.258Z,27.50
2022-09-04T09:52:17.036Z,26.80
2022-09-04T09:55:48.154Z,26.50
2022-09-04T09:59:05.938Z,26.10
2022-09-04T10:02:09.101Z,25.90
2022-09-04T10:05:19.466Z,26.30
2022-09-04T10:08:33.819Z,26.30
2022-09-04T10:11:50.722Z,25.30
2022-09-04T10:15:23.500Z,24.80
2022-09-04T10:18:40.217Z,25.10
2022-09-04T10:21:45.051Z,25.70
2022-09-04T10:24:57.628Z,25.70
2022-09-04T10:28:26.208Z,26.00
2022-09-04T10:31:37.111Z,26.50
2022-09-04T10:34:27.915Z,26.30
2022-09-04T10:37:18.210Z,26.30
2022-09-04T10:40:22.940Z,26.30
2022-09-04T10:43:19.287Z,26.30
2022-09-04T10:45:55.854Z,26.60
2022-09-04T10:49:12.303Z,26.60
2022-09-04T10:52:24.684Z,26.50
2022-09-04T10:55:17.984Z,26.70
2022-09-04T10:58:15.337Z,26.20
2022-09-04T11:01:11.951Z,26.20
2022-09-04T11:05:39.521Z,26.20
2022-09-04T11:08:42.680Z,25.70
2022-09-04T11:11:40.884Z,25.60
2022-09-04T11:14:43.515Z,25.20
2022-09-04T11:17:54.666Z,25.30
2022-09-04T11:21:32.639Z,25.30
2022-09-04T11:25:01.970Z,25.60
2022-09-04T11:28:20.556Z,25.90
2022-09-04T11:31:20.970Z,26.00
2022-09-04T11:34:48.407Z,25.90
2022-09-04T11:37:48.225Z,25.70
2022-09-04T11:41:07.764Z,25.40
2022-09-04T11:44:36.389Z,25.30
2022-09-04T11:47:43.588Z,25.10
2022-09-04T11:50:41.895Z,25.10
2022-09-04T11:53:41.627Z,25.20
2022-09-04T11:56:49.178Z,25.40
2022-09-04T12:00:10.201Z,25.40
2022-09-04T12:03:38.760Z,25.50
2022-09-04T12:06:29.741Z,25.40
2022-09-04T12:09:48.529Z,25.40
2022-09-04T12:13:15.193Z,25.60
2022-09-04T12:16:23.695Z,26.00
2022-09-04T12:19:50.466Z,25.90
2022-09-04T12:22:55.892Z,26.20
2022-09-04T12:26:12.202Z,26.40
2022-09-04T12:29:28.023Z,26.40
2022-09-04T12:33:12.506Z,26.00
2022-09-04T12:36:43.450Z,25.90
2022-09-04T12:40:06.203Z,26.10
2022-09-04T12:42:49.319Z,26.30
2022-09-04T12:45:31.770Z,26.30
2022-09-04T12:48:15.476Z,26.30
2022-09-04T12:50:57.696Z,25.30
2022-09-04T12:54:04.717Z,25.10
2022-09-04T12:56:49.595Z,25.10
2022-09-04T12:59:45.052Z,25.60
2022-09-04T13:05:55.589Z,25.20
2022-09-04T13:08:42.509Z,24.80
2022-09-04T13:11:35.171Z,25.00
2022-09-04T13:14:29.528Z,25.90
2022-09-04T13:17:08.999Z,26.40
2022-09-04T13:19:55.377Z,26.70
2022-09-04T13:22:39.802Z,26.80
2022-09-04T13:25:27.463Z,26.50
2022-09-04T13:28:17.386Z,25.20
2022-09-04T13:31:00.129Z,24.70
2022-09-04T13:33:53.436Z,25.50
2022-09-04T13:36:40.098Z,26.40
2022-09-04T13:39:47.862Z,25.90
2022-09-04T13:43:14.995Z,24.90
2022-09-04T13:45:51.107Z,24.00
2022-09-04T13:48:37.441Z,23.50
2022-09-04T13:51:14.728Z,23.40
2022-09-04T13:53:59.822Z,24.30
2022-09-04T13:56:38.944Z,25.40
2022-09-04T13:59:14.951Z,26.10
2022-09-04T14:01:50.421Z,26.70
2022-09-04T14:04:26.756Z,27.10
2022-09-04T14:07:02.562Z,26.80
2022-09-04T14:09:34.178Z,25.90
2022-09-04T14:12:40.751Z,26.10
2022-09-04T14:15:41.592Z,26.70
2022-09-04T14:18:45.695Z,27.10
2022-09-04T14:21:28.293Z,27.30
2022-09-04T14:24:10.825Z,26.40
2022-09-04T14:26:50.768Z,25.30
2022-09-04T14:29:38.414Z,25.00
2022-09-04T14:32:24.774Z,24.80
2022-09-04T14:35:08.701Z,24.80
2022-09-04T14:38:27.328Z,25.50
2022-09-04T14:41:12.288Z,26.80
2022-09-04T14:44:03.526Z,27.70
2022-09-04T14:46:48.528Z,27.50
2022-09-04T14:49:24.006Z,27.00
2022-09-04T14:51:56.959Z,26.50
2022-09-04T14:54:31.466Z,26.50
2022-09-04T14:57:13.208Z,26.00
2022-09-04T14:59:54.128Z,25.80
2022-09-04T15:05:25.199Z,26.30
2022-09-04T15:08:01.923Z,26.00
2022-09-04T15:10:50.832Z,25.70
2022-09-04T15:13:51.732Z,26.00
2022-09-04T15:16:46.871Z,26.80
2022-09-04T15:19:41.003Z,26.30
2022-09-04T15:22:20.777Z,25.70
2022-09-04T15:24:58.562Z,25.40
2022-09-04T15:27:40.873Z,25.70
2022-09-04T15:30:20.908Z,26.40
2022-09-04T15:32:51.953Z,26.30
2022-09-04T15:35:32.780Z,26.40
2022-09-04T15:38:21.229Z,26.20
2022-09-04T15:41:17.922Z,25.40
2022-09-04T15:43:52.429Z,24.60
2022-09-04T15:46:36.519Z,24.70
2022-09-04T15:49:26.852Z,24.70
2022-09-04T15:52:12.784Z,24.20
2022-09-04T15:55:10.653Z,23.70
2022-09-04T15:58:05.341Z,23.40
2022-09-04T16:00:40.555Z,23.40
2022-09-04T16:03:23.796Z,23.30
2022-09-04T16:06:00.411Z,23.30
2022-09-04T16:08:41.355Z,23.10
2022-09-04T16:11:24.168Z,23.10
2022-09-04T16:14:00.228Z,23.10
2022-09-04T16:16:41.093Z,23.10
2022-09-04T16:19:23.871Z,23.20
2022-09-04T16:22:09.360Z,23.30
2022-09-04T16:24:45.607Z,23.30
2022-09-04T16:27:21.358Z,23.10
2022-09-04T16:29:59.866Z,23.00
2022-09-04T16:32:32.541Z,22.90
2022-09-04T16:35:06.787Z,22.60
2022-09-04T16:37:44.523Z,22.30
2022-09-04T16:40:29.441Z,22.10
2022-09-04T16:43:12.189Z,21.90
2022-09-04T16:45:51.035Z,21.80
2022-09-04T16:48:34.596Z,21.60
2022-09-04T16:51:39.146Z,21.40
2022-09-04T16:54:12.238Z,21.20
2022-09-04T16:56:50.000Z,21.10
2022-09-04T16:59:39.446Z,20.90
2022-09-04T17:05:34.977Z,20.70
2022-09-04T17:08:15.157Z,20.70
2022-09-04T17:10:52.087Z,20.60
2022-09-04T17:13:29.897Z,20.50
2022-09-04T17:16:08.182Z,20.40
2022-09-04T17:18:43.831Z,20.30
2022-09-04T17:25:40.581Z,20.20
2022-09-04T17:28:56.418Z,20.10
2022-09-04T17:29:15.597Z,20.00
2022-09-04T17:30:46.538Z,19.90
2022-09-04T17:40:37.377Z,19.70
2022-09-04T17:40:42.936Z,19.70
2022-09-04T17:40:55.854Z,19.50
2022-09-04T17:42:25.161Z,19.40
2022-09-04T17:45:04.998Z,19.30
2022-09-04T17:47:38.392Z,19.10
2022-09-04T17:50:20.660Z,19.00
2022-09-04T17:53:01.365Z,18.90
2022-09-04T17:55:39.143Z,18.80
2022-09-04T17:58:31.068Z,18.60
2022-09-04T18:01:14.220Z,18.60
2022-09-04T18:04:19.708Z,18.50
2022-09-04T18:06:56.099Z,18.40
2022-09-04T18:09:39.225Z,18.30
2022-09-04T18:12:22.012Z,18.20
2022-09-04T18:15:33.843Z,18.00
2022-09-04T18:18:01.797Z,17.90
2022-09-04T18:20:38.004Z,17.80
2022-09-04T18:23:55.993Z,17.70
2022-09-04T18:26:40.648Z,17.60
2022-09-04T18:32:15.501Z,17.60
2022-09-04T18:37:15.730Z,17.50
2022-09-04T18:37:19.364Z,17.60
2022-09-04T18:39:09.320Z,17.50
2022-09-04T18:49:23.809Z,17.40
2022-09-04T18:50:27.961Z,17.40
2022-09-04T18:50:32.099Z,17.30
2022-09-04T18:53:56.973Z,17.20
2022-09-04T18:56:31.865Z,17.20
2022-09-04T18:59:11.819Z,17.20
2022-09-04T19:05:44.290Z,17.20
2022-09-04T19:08:21.953Z,17.30
2022-09-04T19:10:58.066Z,17.40
2022-09-04T19:13:32.202Z,17.40
2022-09-04T19:16:08.999Z,17.40
2022-09-04T19:18:52.146Z,17.40
2022-09-04T19:21:33.881Z,17.50
2022-09-04T19:24:22.487Z,17.50
2022-09-04T19:27:27.628Z,17.40
2022-09-04T19:30:18.585Z,17.40
2022-09-04T19:33:07.953Z,17.40
2022-09-04T19:35:48.593Z,17.30
2022-09-04T19:43:51.227Z,17.30
2022-09-04T19:46:06.529Z,17.30
2022-09-04T19:46:11.955Z,17.20
2022-09-04T19:47:50.281Z,17.10
2022-09-04T19:53:18.472Z,17.10
2022-09-04T19:53:41.183Z,17.00
2022-09-04T19:56:29.526Z,17.00
2022-09-04T19:59:06.748Z,17.00
2022-09-04T20:01:48.840Z,16.90
2022-09-04T20:04:37.158Z,16.90
2022-09-04T20:07:12.637Z,16.90
2022-09-04T20:09:51.950Z,16.90
2022-09-04T20:12:29.650Z,16.80
2022-09-04T20:15:12.541Z,16.80
2022-09-04T20:18:07.574Z,16.80
2022-09-04T20:20:49.954Z,16.80
2022-09-04T20:23:33.969Z,16.70
2022-09-04T20:26:17.868Z,16.70
2022-09-04T20:29:00.047Z,16.70
2022-09-04T20:31:56.652Z,16.70
2022-09-04T20:34:41.300Z,16.70
2022-09-04T20:37:33.021Z,16.70
2022-09-04T20:40:18.185Z,16.70
2022-09-04T20:42:56.769Z,16.70
2022-09-04T20:48:20.879Z,16.70
2022-09-04T20:52:54.895Z,16.70
2022-09-04T20:52:57.623Z,16.70
2022-09-04T20:54:49.221Z,16.70
2022-09-04T21:03:08.357Z,16.50
2022-09-04T21:03:09.827Z,16.60
2022-09-04T21:05:54.227Z,16.40
2022-09-04T21:08:49.855Z,16.40
2022-09-04T21:11:40.605Z,16.30
2022-09-04T21:14:20.042Z,16.20
2022-09-04T21:17:35.752Z,16.10
2022-09-04T21:21:02.343Z,16.10
2022-09-04T21:24:15.281Z,15.90
2022-09-04T21:27:20.331Z,15.90
2022-09-04T21:30:07.423Z,15.90
2022-09-04T21:33:26.678Z,15.90
2022-09-04T21:36:25.477Z,15.90
2022-09-04T21:39:37.347Z,15.90
2022-09-04T21:42:52.216Z,15.90
2022-09-04T21:45:42.915Z,15.90
2022-09-04T21:48:44.099Z,16.00
2022-09-04T21:51:40.867Z,16.00
2022-09-04T21:57:19.415Z,16.10
2022-09-04T22:02:36.081Z,16.00
2022-09-04T22:02:49.714Z,16.10
2022-09-04T22:04:47.625Z,16.10
2022-09-04T22:10:50.837Z,16.10
2022-09-04T22:13:40.446Z,16.10
2022-09-04T22:13:49.359Z,16.10
2022-09-04T22:16:48.971Z,16.00
2022-09-04T22:20:02.221Z,16.10
2022-09-04T22:23:24.951Z,16.10
2022-09-04T22:26:25.605Z,16.10
2022-09-04T22:29:26.663Z,16.10
2022-09-04T22:32:45.437Z,16.00
2022-09-04T22:36:13.625Z,16.00
2022-09-04T22:39:20.323Z,16.00
2022-09-04T22:42:37.817Z,16.00
2022-09-04T22:45:50.117Z,15.90
2022-09-04T22:49:12.876Z,15.90
2022-09-04T22:52:12.565Z,15.90
2022-09-04T22:55:00.332Z,15.80
2022-09-04T22:57:50.533Z,15.80
2022-09-04T23:00:22.448Z,15.80
2022-09-04T23:07:59.161Z,15.70
2022-09-04T23:13:52.293Z,15.70
2022-09-04T23:13:58.088Z,15.70
2022-09-04T23:16:51.684Z,15.60
2022-09-04T23:26:28.323Z,15.60
2022-09-04T23:26:54.235Z,15.50
2022-09-04T23:27:29.349Z,15.50
2022-09-04T23:30:25.258Z,15.50
2022-09-04T23:33:42.856Z,15.50
2022-09-04T23:36:50.539Z,15.40
2022-09-04T23:40:05.267Z,15.30
2022-09-04T23:43:07.675Z,15.30
2022-09-04T23:46:23.914Z,15.20
2022-09-04T23:49:25.322Z,15.00
2022-09-04T23:52:08.091Z,14.90
2022-09-04T23:55:21.561Z,14.80
2022-09-04T23:58:27.194Z,14.80
